Latest Coastal Weather Observations for Point Fawcett

IDD60701

Issued at 6:21 pm CST Saturday 24 June 2017 (issued every 10 minutes, with the page automatically refreshed every 10 minutes)

About coastal observations | Map of coastal stations | Coastal observations for NT | Marine services | Other Formats
Station Details ID: 200731 Name: POINT FAWCETT Lat: -11.76 Lon: 130.03 Height: 6.5 m
Data from the previous 72 hours. | See also: Recent months at Point Fawcett
Date/Time
CST
Temp
°C
Wind Pressure Rain since
9am
mm
Weather Cloud Vis
km
Sea
Height
m
Swell
Dir  Spd
kts
Gust
kts
hPa Trend Height
m
Period
s
Dir
24/06:00pm 27.0 ESE 5 7 1009.4 - 0.0 - - - - - - -
24/05:30pm 28.6 ESE 6 10 1009.3 - 0.0 - - - - - - -
24/05:00pm 29.4 ESE 7 12 1009.1 - 0.0 - - - - - - -
24/04:30pm 29.7 ESE 8 14 1009.1 - 0.0 - - - - - - -
24/04:00pm 29.9 ESE 8 17 1009.2 - 0.0 - - - - - - -
24/03:30pm 29.8 SE 9 13 1009.4 - 0.0 - - - - - - -
24/03:00pm 29.8 SE 8 13 1009.7 - 0.0 - - - - - - -
24/02:30pm 31.0 ESE 8 11 1010.0 - 0.0 - - - - - - -
24/02:00pm 31.0 ESE 6 13 1010.6 - 0.0 - - - - - - -
24/01:30pm 31.2 ESE 7 14 1011.1 - 0.0 - - - - - - -
24/01:00pm 30.0 SE 7 11 1011.6 - 0.0 - - - - - - -
24/12:30pm 28.4 ESE 6 11 1012.3 - 0.0 - - - - - - -
24/12:00pm 30.3 ESE 7 14 1012.6 - 0.0 - - - - - - -
24/11:30am 29.4 E 8 13 1013.0 - 0.0 - - - - - - -
24/11:00am 28.4 E 7 12 1013.2 - 0.0 - - - - - - -
24/10:30am 26.8 E 7 11 1013.6 - 0.0 - - - - - - -
24/10:00am 26.5 E 7 10 1013.8 - 0.0 - - - - - - -
24/09:30am 27.3 E 8 14 1013.8 - 0.0 - - - - - - -
24/09:00am 25.3 E 7 9 1013.5 - 0.0 - - - - - - -
24/08:30am 23.7 E 6 8 1013.3 - 0.0 - - - - - - -
24/08:00am 22.4 E 5 7 1012.9 - 0.0 - - - - - - -
24/07:30am 21.8 E 5 7 1012.5 - 0.0 - - - - - - -
24/07:00am 21.3 E 6 7 1012.2 - 0.0 - - - - - - -
24/06:30am 21.4 E 5 8 1011.8 - 0.0 - - - - - - -
24/06:00am 21.5 ESE 5 7 1011.5 - 0.0 - - - - - - -
24/05:30am 21.7 E 6 7 1011.5 - 0.0 - - - - - - -
24/05:00am 21.8 E 5 7 1011.5 - 0.0 - - - - - - -
24/04:30am 21.9 E 5 7 1011.5 - 0.0 - - - - - - -
24/04:00am 22.0 E 5 7 1011.6 - 0.0 - - - - - - -
24/03:30am 21.8 E 5 7 1011.5 - 0.0 - - - - - - -
24/03:00am 20.7 ESE 5 6 1011.8 - 0.0 - - - - - - -
24/02:30am 20.4 ESE 4 5 1011.9 - 0.0 - - - - - - -
24/02:00am 20.5 ESE 4 5 1012.1 - 0.0 - - - - - - -
24/01:30am 20.9 E 4 5 1012.3 - 0.0 - - - - - - -
24/01:00am 20.8 ESE 4 5 1012.4 - 0.0 - - - - - - -
24/12:30am 21.2 E 3 4 1012.5 - 0.0 - - - - - - -
24/12:00am 21.9 E 3 4 1012.5 - 0.0 - - - - - - -
 
Date/Time
CST
Temp
°C
Wind Pressure Rain since
9am
mm
Weather Cloud Vis
km
Sea
Height
m
Swell
Dir  Spd
kts
Gust
kts
hPa Trend Height
m
Period
s
Dir
23/11:30pm 22.9 ENE 3 4 1012.7 - 0.0 - - - - - - -
23/11:00pm 24.6 NE 4 6 1012.8 - 0.0 - - - - - - -
23/10:30pm 25.1 NE 5 7 1012.8 - 0.0 - - - - - - -
23/10:00pm 25.6 NNE 6 8 1012.7 - 0.0 - - - - - - -
23/09:30pm 26.0 NNE 7 11 1012.6 - 0.0 - - - - - - -
23/09:00pm 26.1 N 7 10 1012.3 - 0.0 - - - - - - -
23/08:30pm 26.1 N 7 10 1012.1 - 0.0 - - - - - - -
23/08:00pm 26.2 N 8 10 1011.9 - 0.0 - - - - - - -
23/07:30pm 26.3 N 7 10 1011.6 - 0.0 - - - - - - -
23/07:00pm 26.4 N 9 12 1011.3 - 0.0 - - - - - - -
23/06:30pm 27.0 NNW 8 11 1010.9 - 0.0 - - - - - - -
23/06:00pm 28.1 N 7 9 1010.7 - 0.0 - - - - - - -
23/05:30pm 29.2 SE 4 7 1010.4 - 0.0 - - - - - - -
23/05:00pm 30.0 ESE 5 9 1010.3 - 0.0 - - - - - - -
23/04:30pm 30.4 SE 5 8 1010.3 - 0.0 - - - - - - -
23/04:00pm 30.9 SE 5 8 1010.3 - 0.0 - - - - - - -
23/03:30pm 31.6 ESE 6 9 1010.5 - 0.0 - - - - - - -
23/03:00pm 31.1 ESE 7 11 1010.9 - 0.0 - - - - - - -
23/02:30pm 31.3 SE 5 9 1011.2 - 0.0 - - - - - - -
23/02:00pm 30.8 E 9 12 1011.8 - 0.0 - - - - - - -
23/01:30pm 31.4 E 9 13 1012.1 - 0.0 - - - - - - -
23/01:00pm 30.5 E 9 16 1012.5 - 0.0 - - - - - - -
23/12:30pm 30.1 ESE 7 13 1013.2 - 0.0 - - - - - - -
23/12:00pm 29.4 ESE 7 13 1013.8 - 0.0 - - - - - - -
23/11:30am 29.0 SE 8 12 1013.9 - 0.0 - - - - - - -
23/11:00am 28.7 ESE 7 11 1014.3 - 0.0 - - - - - - -
23/10:30am 28.7 ESE 6 11 1014.4 - 0.0 - - - - - - -
23/10:00am 28.0 E 7 10 1014.6 - 0.0 - - - - - - -
23/09:30am 27.7 ESE 5 7 1014.6 - 0.0 - - - - - - -
23/09:00am 25.7 ESE 4 5 1014.5 - 0.0 - - - - - - -
23/08:30am 23.7 E 4 6 1014.1 - 0.0 - - - - - - -
23/08:00am 20.4 ESE 4 5 1013.8 - 0.0 - - - - - - -
23/07:30am 19.0 ESE 4 5 1013.5 - 0.0 - - - - - - -
23/07:00am 18.9 ESE 5 6 1013.3 - 0.0 - - - - - - -
23/06:30am 18.6 ESE 4 5 1013.1 - 0.0 - - - - - - -
23/06:00am 18.8 ESE 4 5 1012.9 - 0.0 - - - - - - -
23/05:30am 18.7 ESE 4 5 1012.9 - 0.0 - - - - - - -
23/05:00am 18.8 ESE 4 5 1013.0 - 0.0 - - - - - - -
23/04:30am 18.9 ESE 4 5 1013.0 - 0.0 - - - - - - -
23/04:00am 19.1 ESE 4 5 1013.0 - 0.0 - - - - - - -
23/03:30am 18.6 ESE 4 5 1013.1 - 0.0 - - - - - - -
23/03:00am 18.4 SE 4 4 1013.3 - 0.0 - - - - - - -
23/02:30am 18.2 SE 3 4 1013.3 - 0.0 - - - - - - -
23/02:00am 18.4 SE 4 4 1013.4 - 0.0 - - - - - - -
23/01:30am 18.5 S 3 4 1013.7 - 0.0 - - - - - - -
23/01:00am 18.6 CALM 0 0 1014.1 - 0.0 - - - - - - -
23/12:30am 18.6 CALM 0 0 1014.1 - 0.0 - - - - - - -
23/12:00am 18.6 CALM 0 0 1014.3 - 0.0 - - - - - - -
 
Date/Time
CST
Temp
°C
Wind Pressure Rain since
9am
mm
Weather Cloud Vis
km
Sea
Height
m
Swell
Dir  Spd
kts
Gust
kts
hPa Trend Height
m
Period
s
Dir
22/11:30pm 18.8 CALM 0 0 1014.3 - 0.0 - - - - - - -
22/11:00pm 19.2 CALM 0 0 1014.2 - 0.0 - - - - - - -
22/10:30pm 19.6 CALM 0 2 1014.4 - 0.0 - - - - - - -
22/10:00pm 19.7 E 3 4 1014.5 - 0.0 - - - - - - -
22/09:30pm 20.1 ESE 4 4 1014.4 - 0.0 - - - - - - -
22/09:00pm 20.4 ESE 4 5 1014.3 - 0.0 - - - - - - -
22/08:30pm 21.0 ESE 4 5 1014.0 - 0.0 - - - - - - -
22/08:00pm 21.5 ESE 4 5 1013.7 - 0.0 - - - - - - -
22/07:30pm 22.9 ESE 5 6 1013.4 - 0.0 - - - - - - -
22/07:00pm 23.6 E 4 6 1013.0 - 0.0 - - - - - - -
22/06:30pm 25.3 ENE 5 7 1012.8 - 0.0 - - - - - - -
22/06:00pm 26.2 ESE 6 8 1012.0 - 0.0 - - - - - - -
22/05:30pm 27.3 SE 6 10 1011.7 - 0.0 - - - - - - -
22/05:00pm 28.5 SE 5 9 1011.5 - 0.0 - - - - - - -
22/04:30pm 29.9 ESE 5 9 1011.3 - 0.0 - - - - - - -
22/04:00pm 29.8 SE 7 11 1011.3 - 0.0 - - - - - - -
22/03:30pm 30.4 SE 7 10 1011.5 - 0.0 - - - - - - -
22/03:00pm 30.7 ESE 7 11 1011.8 - 0.0 - - - - - - -
22/02:30pm 31.3 SE 6 12 1012.0 - 0.0 - - - - - - -
22/02:00pm 31.1 ESE 8 11 1012.3 - 0.0 - - - - - - -
22/01:30pm 30.9 ESE 8 13 1012.4 - 0.0 - - - - - - -
22/01:00pm 31.3 E 7 11 1012.9 - 0.0 - - - - - - -
22/12:30pm 30.7 ESE 9 13 1013.2 - 0.0 - - - - - - -
22/12:00pm 29.9 ESE 11 16 1013.7 - 0.0 - - - - - - -
22/11:30am 30.1 ESE 9 19 1014.0 - 0.0 - - - - - - -
22/11:00am 29.8 E 8 13 1014.3 - 0.0 - - - - - - -
22/10:30am 29.5 E 6 13 1014.6 - 0.0 - - - - - - -
22/10:00am 28.1 E 7 13 1014.8 - 0.0 - - - - - - -
22/09:30am 27.4 E 6 9 1014.7 - 0.0 - - - - - - -
22/09:00am 25.6 E 6 10 1014.6 - 0.0 - - - - - - -
22/08:30am 23.7 E 6 9 1014.5 - 0.0 - - - - - - -
22/08:00am 21.7 E 4 5 1014.1 - 0.0 - - - - - - -
22/07:30am 21.1 E 5 7 1013.9 - 0.0 - - - - - - -
22/07:00am 21.4 E 6 8 1013.7 - 0.0 - - - - - - -
22/06:30am 21.2 E 6 8 1013.4 - 0.0 - - - - - - -
22/06:00am 19.9 E 5 6 1013.1 - 0.0 - - - - - - -
22/05:30am 19.9 E 5 6 1013.0 - 0.0 - - - - - - -
22/05:00am 19.2 ESE 5 6 1012.9 - 0.0 - - - - - - -
22/04:30am 19.2 ESE 5 6 1012.9 - 0.0 - - - - - - -
22/04:00am 18.5 ESE 5 6 1013.1 - 0.0 - - - - - - -
22/03:30am 19.1 SE 4 5 1013.1 - 0.0 - - - - - - -
22/03:00am 19.1 ESE 5 6 1013.5 - 0.0 - - - - - - -
22/02:30am 19.0 SE 4 5 1013.6 - 0.0 - - - - - - -
22/02:00am 18.7 SE 4 4 1013.6 - 0.0 - - - - - - -
22/01:30am 18.7 SE 4 4 1013.8 - 0.0 - - - - - - -
22/01:00am 18.9 SSE 4 4 1013.9 - 0.0 - - - - - - -
22/12:30am 18.9 SSE 4 5 1014.1 - 0.0 - - - - - - -
22/12:00am 19.3 SSE 3 4 1014.3 - 0.0 - - - - - - -
 
Date/Time
CST
Temp
°C
Wind Pressure Rain since
9am
mm
Weather Cloud Vis
km
Sea
Height
m
Swell
Dir  Spd
kts
Gust
kts
hPa Trend Height
m
Period
s
Dir
21/11:30pm 19.4 SSE 4 4 1014.4 - 0.0 - - - - - - -
21/11:00pm 19.4 SSE 4 5 1014.4 - 0.0 - - - - - - -
21/10:30pm 19.9 SSE 5 6 1014.3 - 0.0 - - - - - - -
21/10:00pm 21.0 SSE 5 9 1014.1 - 0.0 - - - - - - -
21/09:30pm 21.2 E 6 7 1013.7 - 0.0 - - - - - - -
21/09:00pm 20.7 E 5 7 1013.5 - 0.0 - - - - - - -
21/08:30pm 21.0 E 5 6 1013.2 - 0.0 - - - - - - -
21/08:00pm 21.2 ESE 5 6 1013.0 - 0.0 - - - - - - -
21/07:30pm 22.2 ESE 5 6 1012.6 - 0.0 - - - - - - -
21/07:00pm 23.0 SE 5 6 1012.4 - 0.0 - - - - - - -
21/06:30pm 24.8 ESE 5 6 1012.1 - 0.0 - - - - - - -

Other Formats:

Comma delimited format used in spreadsheet applications
http://www.bom.gov.au/fwo/IDD60701/IDD60701.94122.axf

JavaScript Object Notation format (JSON) in row-major order
http://www.bom.gov.au/fwo/IDD60701/IDD60701.94122.json